Time;durP1;ratioP1;P1;durP2;ratioP2;P2;SDS_P1;SDS_P2;PMS_P1;PMS_P2;Temp;Humidity;BMP_temperature;BMP_pressure;BME280_temperature;BME280_humidity;BME280_pressure;Samples;Min_cycle;Max_cycle;Signal;HPM_P1;HPM_P2
2022/02/10 00:04:45;;;;;;;9.60;7.60;;;;;;;;;;5038087;28;20488;-51
2022/02/10 00:15:38;;;;;;;14.27;7.50;;;;;;;;;;5036470;28;20904;-50
2022/02/10 00:20:56;;;;;;;10.50;6.37;;;;;;;;;;5035272;28;20418;-50
2022/02/10 00:23:35;;;;;;;14.50;7.83;;;;;;;;;;5035906;28;20413;-49
2022/02/10 00:34:22;;;;;;;17.60;8.67;;;;;;;;;;5036010;28;20405;-50
2022/02/10 00:37:09;;;;;;;15.40;8.20;;;;;;;;;;5036205;28;20884;-50
2022/02/10 00:42:00;;;;;;;10.00;7.93;;;;;;;;;;5036423;28;21449;-49
2022/02/10 00:44:26;;;;;;;12.27;8.17;;;;;;;;;;5036363;28;20616;-51
2022/02/10 00:46:52;;;;;;;15.37;7.70;;;;;;;;;;5036698;28;20453;-49
2022/02/10 00:49:18;;;;;;;12.57;7.87;;;;;;;;;;5036866;28;20452;-49
2022/02/10 00:51:45;;;;;;;24.53;8.50;;;;;;;;;;5036810;28;20463;-50
2022/02/10 00:54:11;;;;;;;16.90;9.70;;;;;;;;;;5037209;28;20413;-52
2022/02/10 00:56:37;;;;;;;10.80;7.70;;;;;;;;;;5035844;28;20406;-51
2022/02/10 00:59:19;;;;;;;17.33;9.40;;;;;;;;;;5035799;28;20445;-50
2022/02/10 01:12:51;;;;;;;15.47;9.97;;;;;;;;;;5036571;28;20803;-51
2022/02/10 01:31:56;;;;;;;18.87;10.67;;;;;;;;;;5017014;28;20428;-50
2022/02/10 01:34:23;;;;;;;17.90;9.43;;;;;;;;;;5016607;28;20437;-51
2022/02/10 01:36:49;;;;;;;15.10;10.17;;;;;;;;;;5016210;28;20448;-50
2022/02/10 01:39:22;;;;;;;15.00;9.50;;;;;;;;;;5016470;28;20427;-50
2022/02/10 01:42:30;;;;;;;14.60;9.53;;;;;;;;;;5021123;28;20501;-51
2022/02/10 02:03:37;;;;;;;15.23;9.70;;;;;;;;;;5035557;28;20951;-49
2022/02/10 02:06:11;;;;;;;17.97;10.30;;;;;;;;;;5036099;28;20446;-50
2022/02/10 02:08:39;;;;;;;18.67;11.00;;;;;;;;;;5036050;28;20518;-49
2022/02/10 02:11:05;;;;;;;14.90;10.30;;;;;;;;;;5035892;28;20416;-49
2022/02/10 02:13:32;;;;;;;15.60;10.00;;;;;;;;;;5035399;28;20927;-50
2022/02/10 02:15:58;;;;;;;16.93;10.10;;;;;;;;;;5035928;28;20411;-50
2022/02/10 02:18:25;;;;;;;16.53;10.90;;;;;;;;;;5036215;28;20818;-50
2022/02/10 02:20:52;;;;;;;21.70;11.50;;;;;;;;;;5036017;28;20430;-51
2022/02/10 02:23:19;;;;;;;14.50;9.80;;;;;;;;;;5036176;28;21107;-49
2022/02/10 02:25:49;;;;;;;18.60;12.00;;;;;;;;;;5036278;28;20786;-50
2022/02/10 02:28:15;;;;;;;20.67;11.87;;;;;;;;;;5036111;28;20537;-49
2022/02/10 02:30:49;;;;;;;18.37;11.10;;;;;;;;;;5035600;28;20494;-49
2022/02/10 03:06:14;;;;;;;17.30;9.70;;;;;;;;;;5035404;28;20455;-50
2022/02/10 03:08:44;;;;;;;14.43;10.60;;;;;;;;;;5035157;28;20928;-51
2022/02/10 03:11:13;;;;;;;19.90;10.53;;;;;;;;;;5034741;28;20447;-52
2022/02/10 03:13:46;;;;;;;14.67;9.30;;;;;;;;;;5033857;28;20952;-50
2022/02/10 04:03:13;;;;;;;13.10;9.50;;;;;;;;;;5013979;28;20403;-48
2022/02/10 04:06:06;;;;;;;16.70;9.30;;;;;;;;;;5014751;28;20915;-52
2022/02/10 04:09:06;;;;;;;13.37;8.77;;;;;;;;;;5013053;28;20468;-51
2022/02/10 04:14:08;;;;;;;13.10;8.33;;;;;;;;;;5032905;28;20425;-48
2022/02/10 04:16:47;;;;;;;10.77;8.33;;;;;;;;;;5033862;28;20407;-50
2022/02/10 04:19:43;;;;;;;13.23;9.30;;;;;;;;;;5033789;28;20426;-50
2022/02/10 04:22:24;;;;;;;23.13;10.90;;;;;;;;;;5033328;28;20506;-49
2022/02/10 04:25:19;;;;;;;13.27;10.03;;;;;;;;;;5035502;28;20914;-49
2022/02/10 04:28:03;;;;;;;9.50;8.00;;;;;;;;;;5034268;28;20490;-49
2022/02/10 04:31:03;;;;;;;10.53;8.73;;;;;;;;;;5034034;28;20469;-48
2022/02/10 05:18:10;;;;;;;18.52;10.40;;;;;;;;;;5014227;28;20405;-51
2022/02/10 05:23:22;;;;;;;19.87;11.73;;;;;;;;;;5037019;28;20399;-48
2022/02/10 05:31:25;;;;;;;20.23;11.80;;;;;;;;;;5037318;28;20464;-49
2022/02/10 05:33:57;;;;;;;22.30;12.87;;;;;;;;;;5019157;28;20434;-51
2022/02/10 05:36:27;;;;;;;22.20;12.33;;;;;;;;;;5036733;28;20422;-50
2022/02/10 05:39:05;;;;;;;17.25;10.63;;;;;;;;;;5037114;28;20419;-50
2022/02/10 05:49:55;;;;;;;17.17;10.80;;;;;;;;;;5035171;28;20472;-49
2022/02/10 05:57:41;;;;;;;14.20;10.20;;;;;;;;;;5036328;28;20438;-50
2022/02/10 07:04:38;;;;;;;11.00;7.13;;;;;;;;;;5031384;28;20422;-48
2022/02/10 07:07:29;;;;;;;8.60;7.00;;;;;;;;;;5031640;28;20464;-49
2022/02/10 07:10:12;;;;;;;9.60;8.00;;;;;;;;;;5030879;28;20426;-48
2022/02/10 07:13:05;;;;;;;9.90;7.27;;;;;;;;;;5029385;28;20437;-48
2022/02/10 07:43:56;;;;;;;10.30;6.90;;;;;;;;;;5030069;28;20446;-48
2022/02/10 07:56:37;;;;;;;9.77;7.37;;;;;;;;;;5030829;28;20410;-49
2022/02/10 08:56:37;;;;;;;12.80;8.23;;;;;;;;;;5033925;28;20394;-49
2022/02/10 09:01:55;;;;;;;16.63;9.30;;;;;;;;;;5033838;28;20827;-48
2022/02/10 09:21:03;;;;;;;16.27;9.73;;;;;;;;;;5032380;28;20421;-48
2022/02/10 10:01:31;;;;;;;13.03;9.50;;;;;;;;;;5032611;28;20897;-48
2022/02/10 10:04:01;;;;;;;18.93;9.97;;;;;;;;;;5031764;28;20430;-49
2022/02/10 10:07:19;;;;;;;13.20;9.07;;;;;;;;;;5032543;28;20436;-48
2022/02/10 10:14:26;;;;;;;17.93;8.30;;;;;;;;;;5032533;28;20409;-49
2022/02/10 10:20:20;;;;;;;17.73;11.17;;;;;;;;;;5029814;28;20611;-49
2022/02/10 10:55:43;;;;;;;22.70;14.33;;;;;;;;;;5012235;28;20417;-48
2022/02/10 10:58:14;;;;;;;18.87;14.83;;;;;;;;;;5011873;28;20412;-49
2022/02/10 11:03:56;;;;;;;21.97;14.47;;;;;;;;;;5021728;28;20435;-48
2022/02/10 11:38:09;;;;;;;23.97;14.50;;;;;;;;;;5011469;28;20447;-48
2022/02/10 11:40:55;;;;;;;21.27;14.73;;;;;;;;;;5010892;28;20429;-50
2022/02/10 12:00:19;;;;;;;21.07;13.77;;;;;;;;;;5034987;28;20542;-49
2022/02/10 12:44:01;;;;;;;15.37;11.57;;;;;;;;;;5034211;28;21084;-48
2022/02/10 14:09:16;;;;;;;12.20;8.20;;;;;;;;;;5032358;28;20484;-49
2022/02/10 14:16:57;;;;;;;9.70;8.70;;;;;;;;;;5032481;28;20401;-48
2022/02/10 14:22:10;;;;;;;8.17;6.73;;;;;;;;;;5032311;28;20420;-48
2022/02/10 14:27:21;;;;;;;10.00;6.97;;;;;;;;;;5032049;28;20511;-48
2022/02/10 14:29:48;;;;;;;7.63;6.83;;;;;;;;;;5031752;28;20446;-49
2022/02/10 14:32:16;;;;;;;9.40;7.47;;;;;;;;;;5032007;28;20837;-49
2022/02/10 14:34:44;;;;;;;10.57;7.80;;;;;;;;;;5032099;28;20408;-49
2022/02/10 14:42:56;;;;;;;10.40;6.83;;;;;;;;;;5032028;28;20412;-49
2022/02/10 15:20:57;;;;;;;11.13;8.23;;;;;;;;;;5030717;28;20507;-49
2022/02/10 15:51:07;;;;;;;11.00;8.40;;;;;;;;;;5028978;28;20510;-49
2022/02/10 16:18:09;;;;;;;12.93;9.30;;;;;;;;;;4968588;28;20900;-49
2022/02/10 16:20:36;;;;;;;19.57;10.30;;;;;;;;;;5003375;28;20892;-49
2022/02/10 16:23:05;;;;;;;14.40;8.67;;;;;;;;;;5029757;28;20994;-48
2022/02/10 16:25:33;;;;;;;13.03;8.50;;;;;;;;;;5030577;28;20396;-48
2022/02/10 16:28:19;;;;;;;15.23;8.93;;;;;;;;;;5030586;28;20492;-49
2022/02/10 16:30:45;;;;;;;15.57;9.10;;;;;;;;;;5030331;28;20519;-49
2022/02/10 16:33:11;;;;;;;16.00;9.67;;;;;;;;;;5030261;28;20490;-49
2022/02/10 16:35:39;;;;;;;13.33;9.30;;;;;;;;;;5030551;28;21035;-49
2022/02/10 16:38:05;;;;;;;15.03;9.40;;;;;;;;;;5033506;28;20451;-49
2022/02/10 16:40:32;;;;;;;14.97;8.90;;;;;;;;;;5034020;28;20838;-49
2022/02/10 16:42:58;;;;;;;19.53;9.40;;;;;;;;;;5033310;28;20423;-49
2022/02/10 16:45:24;;;;;;;16.30;8.20;;;;;;;;;;5033526;28;20427;-49
2022/02/10 16:47:50;;;;;;;16.53;9.37;;;;;;;;;;5034019;28;20487;-49
2022/02/10 16:50:17;;;;;;;14.37;9.10;;;;;;;;;;5033663;28;20417;-49
2022/02/10 16:52:47;;;;;;;20.37;10.47;;;;;;;;;;5033952;28;20443;-48
2022/02/10 16:58:12;;;;;;;17.30;9.70;;;;;;;;;;5033995;28;20449;-49
2022/02/10 17:19:07;;;;;;;20.13;9.20;;;;;;;;;;5013490;28;20847;-49
2022/02/10 17:27:08;;;;;;;14.43;9.07;;;;;;;;;;5013947;28;20504;-49
2022/02/10 17:32:57;;;;;;;15.03;10.13;;;;;;;;;;5013865;28;20440;-49
2022/02/10 17:35:45;;;;;;;15.23;10.17;;;;;;;;;;5013640;28;20914;-48
2022/02/10 17:42:14;;;;;;;16.33;12.13;;;;;;;;;;5032750;28;20474;-48
2022/02/10 17:44:14;;;;;;;19.93;12.43;;;;;;;;;;5019440;28;20498;-48
2022/02/10 17:46:53;;;;;;;22.37;11.70;;;;;;;;;;5033064;28;20402;-48
2022/02/10 17:52:16;;;;;;;16.87;9.43;;;;;;;;;;5032661;28;20399;-49
2022/02/10 17:54:43;;;;;;;13.90;8.43;;;;;;;;;;5032984;28;20402;-49
2022/02/10 17:57:09;;;;;;;20.20;9.00;;;;;;;;;;5032578;28;21035;-49
2022/02/10 17:59:35;;;;;;;14.73;8.80;;;;;;;;;;5032455;28;20426;-50
2022/02/10 18:02:02;;;;;;;14.07;9.17;;;;;;;;;;5032636;28;20405;-49
2022/02/10 18:04:28;;;;;;;13.10;9.20;;;;;;;;;;5032784;28;20778;-48
2022/02/10 18:06:56;;;;;;;21.60;8.60;;;;;;;;;;5032664;28;20396;-48
2022/02/10 18:19:33;;;;;;;7.17;5.40;;;;;;;;;;5032194;28;20426;-48
2022/02/10 18:29:36;;;;;;;5.43;4.07;;;;;;;;;;5031871;28;20246;-49
2022/02/10 19:01:45;;;;;;;4.68;4.28;;;;;;;;;;5031067;28;20222;-46
2022/02/10 19:10:05;;;;;;;7.72;5.25;;;;;;;;;;5031121;28;20648;-48
2022/02/10 19:12:42;;;;;;;8.25;5.35;;;;;;;;;;5013955;28;20582;-48
2022/02/10 19:15:15;;;;;;;9.18;5.32;;;;;;;;;;5031371;28;20168;-47
2022/02/10 19:17:41;;;;;;;6.20;5.35;;;;;;;;;;5031421;28;20172;-47
2022/02/10 19:20:08;;;;;;;7.03;4.80;;;;;;;;;;5031097;28;20197;-47
2022/02/10 19:22:34;;;;;;;7.68;5.70;;;;;;;;;;5031101;28;20168;-50
2022/02/10 19:25:00;;;;;;;7.28;6.50;;;;;;;;;;5031305;28;20165;-47
2022/02/10 19:27:26;;;;;;;8.38;6.35;;;;;;;;;;5031121;28;20270;-50
2022/02/10 19:29:57;;;;;;;9.53;6.80;;;;;;;;;;5030831;28;20277;-50
2022/02/10 19:32:26;;;;;;;11.07;6.53;;;;;;;;;;5031286;28;20382;-47
2022/02/10 19:34:54;;;;;;;6.93;5.45;;;;;;;;;;5031415;28;20221;-47
2022/02/10 19:37:20;;;;;;;5.72;4.75;;;;;;;;;;5030701;28;20159;-52
2022/02/10 19:39:52;;;;;;;9.73;6.53;;;;;;;;;;5030673;28;20199;-47
2022/02/10 19:42:18;;;;;;;4.30;3.83;;;;;;;;;;5031106;28;20167;-47
2022/02/10 19:44:44;;;;;;;12.43;5.00;;;;;;;;;;5030971;28;20176;-48
2022/02/10 19:47:10;;;;;;;6.30;3.38;;;;;;;;;;5031021;28;20420;-49
2022/02/10 19:49:39;;;;;;;4.60;4.13;;;;;;;;;;5030630;28;20187;-47
2022/02/10 19:52:06;;;;;;;3.47;3.28;;;;;;;;;;5030951;28;20399;-47
2022/02/10 19:54:37;;;;;;;3.03;2.70;;;;;;;;;;5030979;28;20734;-47
2022/02/10 19:57:04;;;;;;;2.50;2.30;;;;;;;;;;5030907;28;20168;-47
2022/02/10 19:59:31;;;;;;;3.13;2.83;;;;;;;;;;5012751;28;20191;-47
2022/02/10 20:01:57;;;;;;;8.88;2.40;;;;;;;;;;5030687;28;20183;-47
2022/02/10 20:04:24;;;;;;;2.03;1.92;;;;;;;;;;5030849;28;20190;-47
2022/02/10 20:06:51;;;;;;;2.83;2.00;;;;;;;;;;5030022;28;20251;-47
2022/02/10 20:09:18;;;;;;;1.90;1.80;;;;;;;;;;5030467;28;20275;-47
2022/02/10 20:11:44;;;;;;;3.25;2.05;;;;;;;;;;5031245;28;20164;-47
2022/02/10 20:14:10;;;;;;;8.77;2.63;;;;;;;;;;5034716;28;20168;-47
2022/02/10 20:16:36;;;;;;;2.80;2.60;;;;;;;;;;5034620;28;20170;-47
2022/02/10 20:19:02;;;;;;;2.97;2.60;;;;;;;;;;5034371;28;20456;-47
2022/02/10 20:21:30;;;;;;;3.05;2.45;;;;;;;;;;5034649;28;20647;-47
2022/02/10 20:23:56;;;;;;;3.17;2.88;;;;;;;;;;5034564;28;20172;-47
2022/02/10 20:26:22;;;;;;;3.03;2.83;;;;;;;;;;5034547;28;20171;-47
2022/02/10 20:28:48;;;;;;;3.10;2.80;;;;;;;;;;5034185;28;20226;-47
2022/02/10 20:31:15;;;;;;;4.57;3.30;;;;;;;;;;5034330;28;20916;-49
2022/02/10 20:33:41;;;;;;;3.90;3.25;;;;;;;;;;5034407;28;20395;-47
2022/02/10 20:36:08;;;;;;;6.43;3.75;;;;;;;;;;5034606;28;20511;-47
2022/02/10 20:38:38;;;;;;;7.38;3.58;;;;;;;;;;5033477;28;20209;-47
2022/02/10 20:41:12;;;;;;;6.70;4.38;;;;;;;;;;5034372;28;20624;-47
2022/02/10 20:43:38;;;;;;;8.25;4.22;;;;;;;;;;5034192;28;20204;-47
2022/02/10 20:46:07;;;;;;;4.38;3.85;;;;;;;;;;5033624;28;20176;-47
2022/02/10 20:48:36;;;;;;;5.25;4.22;;;;;;;;;;5034079;28;20206;-50
2022/02/10 20:51:03;;;;;;;4.68;3.83;;;;;;;;;;5033937;28;20167;-50
2022/02/10 20:53:29;;;;;;;8.77;4.45;;;;;;;;;;5034017;28;20178;-47
2022/02/10 20:55:56;;;;;;;4.68;4.05;;;;;;;;;;5034023;28;20167;-47
2022/02/10 20:58:25;;;;;;;4.25;3.85;;;;;;;;;;5033837;28;20176;-50
2022/02/10 21:00:52;;;;;;;7.28;3.35;;;;;;;;;;5033646;28;20655;-47
2022/02/10 21:03:23;;;;;;;4.47;3.83;;;;;;;;;;5033866;28;20610;-46
2022/02/10 21:05:50;;;;;;;5.93;5.22;;;;;;;;;;5033816;28;20164;-47
2022/02/10 21:08:33;;;;;;;6.07;4.40;;;;;;;;;;5032823;28;20717;-47
2022/02/10 21:11:00;;;;;;;8.60;4.88;;;;;;;;;;5033457;28;20628;-47
2022/02/10 21:13:26;;;;;;;4.65;4.22;;;;;;;;;;5033604;28;20168;-47
2022/02/10 21:15:53;;;;;;;7.90;3.50;;;;;;;;;;5033567;28;20167;-50
2022/02/10 21:18:20;;;;;;;4.78;3.45;;;;;;;;;;5032758;28;20425;-47
2022/02/10 21:20:46;;;;;;;3.95;3.55;;;;;;;;;;5033582;28;20214;-47
2022/02/10 21:25:39;;;;;;;9.20;3.80;;;;;;;;;;5032957;28;20279;-47
2022/02/10 21:28:15;;;;;;;4.13;3.03;;;;;;;;;;5033367;28;20493;-50
2022/02/10 21:30:42;;;;;;;5.00;2.70;;;;;;;;;;5033136;28;20693;-49
2022/02/10 21:33:16;;;;;;;4.72;2.75;;;;;;;;;;5033279;28;20179;-47
2022/02/10 21:38:22;;;;;;;4.10;2.95;;;;;;;;;;5033569;28;20714;-47
2022/02/10 21:59:47;;;;;;;6.38;4.47;;;;;;;;;;5032624;28;21142;-47
2022/02/10 22:10:26;;;;;;;10.67;4.80;;;;;;;;;;5030860;28;20204;-48
2022/02/10 22:19:00;;;;;;;4.88;4.15;;;;;;;;;;5031664;28;20230;-47
2022/02/10 22:21:20;;;;;;;9.75;4.60;;;;;;;;;;5028947;28;20210;-47
2022/02/10 22:23:47;;;;;;;5.20;3.90;;;;;;;;;;5032260;28;20174;-47
2022/02/10 22:26:24;;;;;;;5.15;3.55;;;;;;;;;;5032399;28;20163;-47
2022/02/10 22:29:00;;;;;;;9.18;3.53;;;;;;;;;;5031791;28;20197;-53
2022/02/10 22:36:57;;;;;;;3.33;3.03;;;;;;;;;;5032285;28;20175;-50
2022/02/10 22:39:24;;;;;;;3.60;3.30;;;;;;;;;;5031851;28;20194;-47
2022/02/10 22:41:50;;;;;;;4.03;3.72;;;;;;;;;;5032047;28;20226;-48
2022/02/10 22:44:16;;;;;;;3.92;2.78;;;;;;;;;;5031848;28;20175;-48
2022/02/10 22:46:42;;;;;;;4.03;3.27;;;;;;;;;;5031850;28;20188;-46
2022/02/10 22:49:08;;;;;;;8.95;3.30;;;;;;;;;;5031736;28;20461;-47
2022/02/10 22:51:35;;;;;;;3.60;3.03;;;;;;;;;;5031842;28;20166;-47
2022/02/10 22:54:01;;;;;;;3.70;3.10;;;;;;;;;;5031652;28;20402;-47
2022/02/10 22:56:29;;;;;;;4.18;2.80;;;;;;;;;;5030742;28;20187;-50
2022/02/10 22:58:59;;;;;;;2.78;2.58;;;;;;;;;;5031362;28;20191;-47
2022/02/10 23:01:26;;;;;;;3.42;3.13;;;;;;;;;;5031645;28;20562;-45
2022/02/10 23:03:52;;;;;;;5.20;2.70;;;;;;;;;;5031580;28;20305;-45
2022/02/10 23:06:18;;;;;;;6.50;2.78;;;;;;;;;;5031515;28;20251;-44
2022/02/10 23:08:44;;;;;;;5.72;3.10;;;;;;;;;;5031378;28;20202;-45
2022/02/10 23:11:13;;;;;;;9.40;2.97;;;;;;;;;;5031308;28;20187;-45
2022/02/10 23:13:44;;;;;;;3.92;3.30;;;;;;;;;;5031303;28;20628;-47
2022/02/10 23:16:10;;;;;;;4.75;3.83;;;;;;;;;;5031500;28;20210;-46
2022/02/10 23:18:36;;;;;;;12.85;3.78;;;;;;;;;;5031360;28;20168;-47
2022/02/10 23:21:06;;;;;;;6.00;4.32;;;;;;;;;;5031178;28;20632;-47
2022/02/10 23:23:33;;;;;;;5.10;3.45;;;;;;;;;;5030192;28;20222;-45
2022/02/10 23:26:00;;;;;;;8.88;3.97;;;;;;;;;;5031161;28;20172;-44
2022/02/10 23:28:28;;;;;;;6.07;4.30;;;;;;;;;;5031164;28;20338;-44
2022/02/10 23:30:55;;;;;;;3.90;3.53;;;;;;;;;;5031009;28;20215;-44
2022/02/10 23:33:28;;;;;;;4.97;3.75;;;;;;;;;;5031184;28;20174;-46
2022/02/10 23:38:43;;;;;;;12.65;4.20;;;;;;;;;;5031239;28;20697;-48
2022/02/10 23:43:48;;;;;;;7.85;3.80;;;;;;;;;;5031092;28;20174;-45
2022/02/10 23:46:15;;;;;;;5.20;3.92;;;;;;;;;;5030790;28;20168;-45
2022/02/10 23:48:41;;;;;;;7.13;5.25;;;;;;;;;;5030900;28;20678;-45
2022/02/10 23:51:07;;;;;;;12.55;5.13;;;;;;;;;;5030921;28;20182;-46
2022/02/10 23:53:34;;;;;;;8.32;4.70;;;;;;;;;;5029904;28;20159;-47
2022/02/10 23:56:03;;;;;;;7.40;3.95;;;;;;;;;;5030981;28;20586;-46
